Time;durP1;ratioP1;P1;durP2;ratioP2;P2;SDS_P1;SDS_P2;PMS_P1;PMS_P2;Temp;Humidity;BMP_temperature;BMP_pressure;BME280_temperature;BME280_humidity;BME280_pressure;Samples;Min_cycle;Max_cycle;Signal;HPM_P1;HPM_P2
2022/03/17 00:02:04;;;;;;;6.30;5.80;;;19.50;48.30;;;;;;4978083;28;20211;-69
2022/03/17 00:04:31;;;;;;;5.68;5.20;;;19.50;48.30;;;;;;4978183;28;20550;-69
2022/03/17 00:06:58;;;;;;;6.20;5.70;;;19.50;48.30;;;;;;4978129;28;20188;-69
2022/03/17 00:09:24;;;;;;;5.63;5.22;;;19.40;48.20;;;;;;5011698;28;20200;-69
2022/03/17 00:11:52;;;;;;;6.40;5.78;;;19.40;48.20;;;;;;4978344;28;20226;-69
2022/03/17 00:14:19;;;;;;;6.80;6.20;;;19.40;48.20;;;;;;4978074;28;20672;-69
2022/03/17 00:16:45;;;;;;;6.78;6.18;;;19.50;48.30;;;;;;4977826;28;20184;-69
2022/03/17 00:19:11;;;;;;;8.40;7.57;;;19.40;48.20;;;;;;5014074;28;20239;-69
2022/03/17 00:21:38;;;;;;;7.80;7.10;;;19.50;48.30;;;;;;4978057;28;20200;-69
2022/03/17 00:24:09;;;;;;;7.68;6.88;;;19.40;48.20;;;;;;4978018;28;20188;-69
2022/03/17 00:26:36;;;;;;;8.38;7.53;;;19.40;48.20;;;;;;4994369;28;20180;-69
2022/03/17 00:29:05;;;;;;;8.57;7.78;;;19.40;48.10;;;;;;4977888;28;20214;-69
2022/03/17 00:31:31;;;;;;;9.32;8.52;;;19.40;48.20;;;;;;5011629;28;20203;-69
2022/03/17 00:33:56;;;;;;;7.90;7.20;;;19.40;48.70;;;;;;4994099;28;20180;-69
2022/03/17 00:36:22;;;;;;;8.27;7.47;;;19.50;48.20;;;;;;4978006;28;20187;-69
2022/03/17 00:38:48;;;;;;;7.50;6.90;;;19.40;48.10;;;;;;4977908;28;20246;-69
2022/03/17 00:41:14;;;;;;;6.70;6.10;;;19.40;48.20;;;;;;4993892;28;20279;-69
2022/03/17 00:43:40;;;;;;;6.55;5.95;;;19.40;48.10;;;;;;4977843;28;20215;-69
2022/03/17 00:46:05;;;;;;;6.90;6.30;;;19.40;48.10;;;;;;4993964;28;20195;-69
2022/03/17 00:48:31;;;;;;;6.00;5.50;;;19.40;48.20;;;;;;5019177;23;20216;-67
2022/03/17 00:50:57;;;;;;;6.35;5.85;;;19.40;48.10;;;;;;5030476;28;20211;-66
2022/03/17 00:53:23;;;;;;;6.63;6.03;;;19.40;48.10;;;;;;5014542;28;20282;-66
2022/03/17 00:55:49;;;;;;;6.97;6.38;;;19.40;48.10;;;;;;5014187;28;20187;-67
2022/03/17 00:58:14;;;;;;;6.65;6.05;;;19.40;48.20;;;;;;5014010;28;20190;-66
2022/03/17 01:00:41;;;;;;;6.75;6.20;;;19.40;48.10;;;;;;5016995;28;20324;-66
2022/03/17 01:03:06;;;;;;;6.90;6.30;;;19.40;48.10;;;;;;5017711;28;20241;-66
2022/03/17 01:05:32;;;;;;;7.25;6.60;;;19.40;48.10;;;;;;5001507;28;20183;-66
2022/03/17 01:07:58;;;;;;;7.10;6.47;;;19.40;48.10;;;;;;5018212;28;20183;-66
2022/03/17 01:10:24;;;;;;;7.75;7.13;;;19.40;48.10;;;;;;5001328;28;20218;-66
2022/03/17 01:12:50;;;;;;;7.78;7.13;;;19.40;48.10;;;;;;5001442;28;20321;-67
2022/03/17 01:15:19;;;;;;;9.05;8.25;;;19.40;48.10;;;;;;5001514;28;20191;-66
2022/03/17 01:17:45;;;;;;;9.20;8.40;;;19.40;48.10;;;;;;5017574;28;20202;-66
2022/03/17 01:20:12;;;;;;;8.50;7.70;;;19.40;48.10;;;;;;5016906;28;20230;-66
2022/03/17 01:22:38;;;;;;;8.82;7.95;;;19.40;48.10;;;;;;5001368;28;20199;-66
2022/03/17 01:25:05;;;;;;;8.90;8.10;;;19.40;48.10;;;;;;5035208;28;20560;-67
2022/03/17 01:27:34;;;;;;;9.00;8.20;;;19.40;48.10;;;;;;5017456;28;20194;-66
2022/03/17 01:30:02;;;;;;;8.80;8.00;;;19.40;48.10;;;;;;5017193;28;20217;-66
2022/03/17 01:32:32;;;;;;;7.95;7.22;;;19.40;48.10;;;;;;5001578;28;20195;-66
2022/03/17 01:34:58;;;;;;;7.35;6.75;;;19.40;48.10;;;;;;5001378;28;20633;-66
2022/03/17 01:37:24;;;;;;;7.45;6.80;;;19.40;48.10;;;;;;5017266;28;20215;-66
2022/03/17 01:39:50;;;;;;;7.13;6.53;;;19.40;48.10;;;;;;5017132;28;20242;-65
2022/03/17 01:42:16;;;;;;;6.78;6.20;;;19.40;48.10;;;;;;5001166;28;20261;-66
2022/03/17 01:44:42;;;;;;;7.60;7.00;;;19.40;48.10;;;;;;5000783;28;20211;-66
2022/03/17 01:49:54;;;;;;;7.32;6.78;;;19.40;48.10;;;;;;5016633;28;20226;-66
2022/03/17 01:52:20;;;;;;;7.70;7.00;;;19.40;48.00;;;;;;5017330;28;20214;-66
2022/03/17 01:54:46;;;;;;;8.30;7.60;;;19.40;48.10;;;;;;5034668;28;20179;-66
2022/03/17 01:57:12;;;;;;;9.00;8.20;;;19.40;48.00;;;;;;5000586;28;20270;-66
2022/03/17 01:59:41;;;;;;;9.00;8.20;;;19.40;48.00;;;;;;5016830;28;20217;-66
2022/03/17 02:02:10;;;;;;;9.57;8.68;;;19.40;48.00;;;;;;5016702;28;20215;-65
2022/03/17 02:04:37;;;;;;;9.23;8.43;;;19.40;48.10;;;;;;5000536;28;20180;-67
2022/03/17 02:07:05;;;;;;;9.32;8.48;;;19.40;48.10;;;;;;5000355;28;20560;-66
2022/03/17 02:09:32;;;;;;;9.38;8.55;;;19.40;48.10;;;;;;5033238;28;20203;-66
2022/03/17 02:15:12;;;;;;;7.30;6.70;;;19.40;48.00;;;;;;5016891;28;20189;-66
2022/03/17 02:17:43;;;;;;;7.60;7.00;;;19.40;48.20;;;;;;4984138;28;20234;-66
2022/03/17 02:20:15;;;;;;;8.55;7.80;;;19.40;48.00;;;;;;4999827;28;20207;-66
2022/03/17 02:22:48;;;;;;;8.00;7.38;;;19.40;48.00;;;;;;5034155;28;20238;-67
2022/03/17 02:25:35;;;;;;;8.90;8.10;;;19.40;48.00;;;;;;5016189;28;20191;-67
2022/03/17 02:28:06;;;;;;;9.65;8.85;;;19.40;48.00;;;;;;5016585;28;20588;-66
2022/03/17 02:30:36;;;;;;;9.77;8.98;;;19.40;48.00;;;;;;4999860;28;20207;-67
2022/03/17 02:33:06;;;;;;;10.05;9.23;;;19.40;48.00;;;;;;5016376;28;20184;-66
2022/03/17 02:35:37;;;;;;;8.38;7.68;;;19.40;48.00;;;;;;4999908;28;20190;-66
2022/03/17 02:38:04;;;;;;;8.27;7.57;;;19.40;48.60;;;;;;5000131;28;20287;-66
2022/03/17 02:40:31;;;;;;;8.20;7.50;;;19.40;48.00;;;;;;5015921;28;20200;-66
2022/03/17 02:42:58;;;;;;;8.45;7.75;;;19.40;48.00;;;;;;5016091;28;20242;-66
2022/03/17 02:45:24;;;;;;;8.35;7.65;;;19.40;48.00;;;;;;5016372;28;20198;-66
2022/03/17 02:47:50;;;;;;;8.15;7.45;;;19.40;48.00;;;;;;5033570;28;20249;-66
2022/03/17 02:50:18;;;;;;;8.25;7.55;;;19.40;48.00;;;;;;4999507;28;20211;-65
2022/03/17 02:52:45;;;;;;;8.27;7.57;;;19.40;48.00;;;;;;5033781;28;20184;-66
2022/03/17 02:55:11;;;;;;;8.30;7.60;;;19.40;48.00;;;;;;5033589;28;20211;-66
2022/03/17 02:57:39;;;;;;;8.35;7.65;;;19.40;48.00;;;;;;5033570;28;20233;-67
2022/03/17 03:00:09;;;;;;;8.05;7.25;;;19.40;47.90;;;;;;5015500;28;20214;-66
2022/03/17 03:02:36;;;;;;;8.85;8.15;;;19.40;48.00;;;;;;5015633;28;20726;-67
2022/03/17 03:05:06;;;;;;;9.25;8.45;;;19.40;48.00;;;;;;5007675;28;20195;-67
2022/03/17 03:07:32;;;;;;;9.88;9.07;;;19.40;47.90;;;;;;5015628;28;20183;-66
2022/03/17 03:09:58;;;;;;;9.73;8.93;;;19.40;47.90;;;;;;5013096;28;20310;-67
2022/03/17 03:12:24;;;;;;;9.63;8.82;;;19.40;47.90;;;;;;4998942;28;20188;-67
2022/03/17 03:14:50;;;;;;;9.95;9.15;;;19.40;47.90;;;;;;5007155;28;20183;-66
2022/03/17 03:17:17;;;;;;;9.65;8.75;;;19.40;47.90;;;;;;5012089;28;20199;-66
2022/03/17 03:19:43;;;;;;;9.45;8.65;;;19.40;47.90;;;;;;5012489;28;20207;-66
2022/03/17 03:22:08;;;;;;;10.32;9.43;;;19.40;47.90;;;;;;4999134;28;20690;-66
2022/03/17 03:24:36;;;;;;;10.00;9.13;;;19.40;47.90;;;;;;4999102;28;20194;-66
2022/03/17 03:27:03;;;;;;;9.50;8.70;;;19.40;47.80;;;;;;5033036;28;20180;-66
2022/03/17 03:29:29;;;;;;;9.13;8.32;;;19.40;47.90;;;;;;5015148;28;20195;-66
2022/03/17 03:32:02;;;;;;;8.85;8.15;;;19.40;47.90;;;;;;5015158;28;20195;-66
2022/03/17 03:34:29;;;;;;;9.63;8.73;;;19.40;47.90;;;;;;4998813;28;20183;-66
2022/03/17 03:39:39;;;;;;;8.85;8.15;;;19.40;47.80;;;;;;5015074;28;20222;-67
2022/03/17 03:42:07;;;;;;;9.35;8.55;;;19.40;47.90;;;;;;5032507;28;20564;-66
2022/03/17 03:44:34;;;;;;;9.52;8.73;;;19.40;47.90;;;;;;4998576;28;20190;-66
2022/03/17 03:47:00;;;;;;;10.52;9.63;;;19.40;47.80;;;;;;4998124;28;20341;-66
2022/03/17 03:49:26;;;;;;;10.95;9.98;;;19.40;47.80;;;;;;4998297;28;20682;-66
2022/03/17 03:51:52;;;;;;;9.43;8.60;;;19.40;47.90;;;;;;5015175;28;20194;-66
2022/03/17 03:54:18;;;;;;;9.88;9.07;;;19.40;47.90;;;;;;5015056;28;20708;-66
2022/03/17 03:56:54;;;;;;;11.35;10.35;;;19.40;47.80;;;;;;4998597;28;20215;-66
2022/03/17 03:59:23;;;;;;;11.25;10.25;;;19.40;47.80;;;;;;5031080;28;20245;-67
2022/03/17 04:01:51;;;;;;;11.35;10.35;;;19.40;47.90;;;;;;5014918;28;20285;-66
2022/03/17 04:04:19;;;;;;;10.63;9.73;;;19.40;47.90;;;;;;5031113;28;20274;-67
2022/03/17 04:06:55;;;;;;;8.73;7.97;;;19.40;47.90;;;;;;5014867;28;20183;-66
2022/03/17 04:09:28;;;;;;;9.45;8.65;;;19.40;47.90;;;;;;5014647;28;20287;-67
2022/03/17 04:11:55;;;;;;;8.80;8.10;;;19.40;47.80;;;;;;4998692;28;20179;-66
2022/03/17 04:14:22;;;;;;;8.60;7.95;;;19.40;47.80;;;;;;5014898;28;20183;-66
2022/03/17 04:16:49;;;;;;;9.57;8.77;;;19.40;47.80;;;;;;4998259;28;20210;-66
2022/03/17 04:19:17;;;;;;;9.00;8.30;;;19.40;47.80;;;;;;5014244;28;20739;-64
2022/03/17 04:21:45;;;;;;;8.65;7.97;;;19.40;47.80;;;;;;5014266;28;20218;-66
2022/03/17 04:24:12;;;;;;;9.80;9.00;;;19.40;47.80;;;;;;5014770;28;20187;-66
2022/03/17 04:26:38;;;;;;;8.98;8.27;;;19.40;47.80;;;;;;5014348;28;20181;-67
2022/03/17 04:29:04;;;;;;;10.43;9.55;;;19.40;47.80;;;;;;4998251;28;20203;-67
2022/03/17 04:31:30;;;;;;;11.13;10.23;;;19.40;47.80;;;;;;5014558;28;20580;-66
2022/03/17 04:33:56;;;;;;;11.25;10.25;;;19.40;47.80;;;;;;5015188;28;20246;-67
2022/03/17 04:36:22;;;;;;;11.23;10.23;;;19.40;47.80;;;;;;5034898;28;20183;-66
2022/03/17 04:38:49;;;;;;;11.05;10.05;;;19.40;47.80;;;;;;5018264;28;20206;-66
2022/03/17 04:41:17;;;;;;;11.00;10.10;;;19.40;47.80;;;;;;5035842;28;20648;-66
2022/03/17 04:43:43;;;;;;;10.98;9.98;;;19.40;47.80;;;;;;5034753;28;20217;-66
2022/03/17 04:46:09;;;;;;;11.65;10.65;;;19.40;47.70;;;;;;5035890;28;20187;-67
2022/03/17 04:48:36;;;;;;;11.32;10.32;;;19.40;47.80;;;;;;5018298;28;20198;-66
2022/03/17 04:51:02;;;;;;;10.57;9.68;;;19.40;47.70;;;;;;5026826;28;20176;-67
2022/03/17 04:53:30;;;;;;;10.05;9.15;;;19.40;47.80;;;;;;5018500;28;20175;-67
2022/03/17 04:56:04;;;;;;;9.32;8.52;;;19.40;47.80;;;;;;5017997;28;20595;-67
2022/03/17 04:58:32;;;;;;;9.60;8.80;;;19.30;47.70;;;;;;5018329;28;20174;-66
2022/03/17 05:01:00;;;;;;;10.05;9.15;;;19.40;47.80;;;;;;5001490;28;20194;-66
2022/03/17 05:03:27;;;;;;;9.70;8.80;;;19.30;47.70;;;;;;5017812;28;20241;-66
2022/03/17 05:05:53;;;;;;;9.25;8.45;;;19.30;47.70;;;;;;5001651;28;20190;-66
2022/03/17 05:08:20;;;;;;;10.00;9.10;;;19.40;47.80;;;;;;5018024;28;20194;-67
2022/03/17 05:10:47;;;;;;;9.70;8.80;;;19.40;47.70;;;;;;5017994;28;20457;-66
2022/03/17 05:13:16;;;;;;;9.80;9.00;;;19.40;47.70;;;;;;5017725;28;20210;-66
2022/03/17 05:15:42;;;;;;;10.60;9.70;;;19.40;47.70;;;;;;5000933;28;20190;-67
2022/03/17 05:18:09;;;;;;;11.23;10.30;;;19.40;47.80;;;;;;5001683;28;20198;-67
2022/03/17 05:20:37;;;;;;;11.32;10.32;;;19.30;47.70;;;;;;5035158;28;20227;-66
2022/03/17 05:23:08;;;;;;;11.70;10.68;;;19.30;47.70;;;;;;5017539;28;20233;-66
2022/03/17 05:25:35;;;;;;;11.10;10.10;;;19.40;47.80;;;;;;5035217;28;20187;-64
2022/03/17 05:28:02;;;;;;;11.60;10.60;;;19.40;47.70;;;;;;5017546;28;20544;-66
2022/03/17 05:30:28;;;;;;;11.82;10.82;;;19.40;48.40;;;;;;5017473;28;20210;-65
2022/03/17 05:32:56;;;;;;;11.80;10.80;;;19.40;47.70;;;;;;5017362;28;20172;-66
2022/03/17 05:35:22;;;;;;;9.75;8.95;;;19.30;47.70;;;;;;5017774;28;20207;-66
2022/03/17 05:37:48;;;;;;;10.35;9.48;;;19.30;47.70;;;;;;5017521;28;20184;-66
2022/03/17 05:40:17;;;;;;;9.68;8.88;;;19.30;47.70;;;;;;5000762;28;20230;-66
2022/03/17 05:42:46;;;;;;;10.02;9.23;;;19.30;47.70;;;;;;5001168;28;20207;-66
2022/03/17 05:45:17;;;;;;;10.13;9.23;;;19.40;47.70;;;;;;5016517;28;20192;-66
2022/03/17 05:47:49;;;;;;;10.07;9.20;;;19.30;47.70;;;;;;5016707;28;20171;-65
2022/03/17 05:50:20;;;;;;;12.30;9.43;;;19.40;47.70;;;;;;5008473;28;20294;-66
2022/03/17 05:52:47;;;;;;;10.25;9.30;;;19.40;47.70;;;;;;5001116;28;20183;-65
2022/03/17 05:55:16;;;;;;;9.60;8.80;;;19.40;47.70;;;;;;5017010;28;20191;-66
2022/03/17 05:57:47;;;;;;;9.60;8.75;;;19.30;47.70;;;;;;5017168;28;20297;-66
2022/03/17 06:00:17;;;;;;;11.82;10.75;;;19.30;47.70;;;;;;5016854;28;20217;-66
2022/03/17 06:02:43;;;;;;;11.38;10.27;;;19.30;47.60;;;;;;5016761;28;20211;-67
2022/03/17 06:05:11;;;;;;;11.50;10.50;;;19.30;47.70;;;;;;5034707;28;20184;-66
2022/03/17 06:07:44;;;;;;;11.68;10.57;;;19.30;47.60;;;;;;5033485;28;20183;-66
2022/03/17 06:10:19;;;;;;;11.25;10.25;;;19.30;47.60;;;;;;5016433;28;20700;-66
2022/03/17 06:12:45;;;;;;;11.15;10.15;;;19.40;47.70;;;;;;5034411;28;20175;-66
2022/03/17 06:15:12;;;;;;;10.35;9.45;;;19.30;47.60;;;;;;5016601;28;20208;-67
2022/03/17 06:17:45;;;;;;;10.48;9.45;;;19.30;47.60;;;;;;5016599;28;20687;-65
2022/03/17 06:20:14;;;;;;;10.27;9.40;;;19.30;48.20;;;;;;5016544;28;20249;-67
2022/03/17 06:22:43;;;;;;;9.88;8.98;;;19.40;47.70;;;;;;5034111;28;20252;-66
2022/03/17 06:25:13;;;;;;;10.27;9.38;;;19.40;47.70;;;;;;5016754;28;20192;-67
2022/03/17 06:27:42;;;;;;;10.50;9.60;;;19.30;47.60;;;;;;5034125;28;20168;-66
2022/03/17 06:30:13;;;;;;;9.88;9.05;;;19.40;47.70;;;;;;5016274;28;20210;-66
2022/03/17 06:32:39;;;;;;;10.60;9.60;;;19.30;47.60;;;;;;5016396;28;20186;-66
2022/03/17 06:35:26;;;;;;;10.82;9.82;;;19.40;47.70;;;;;;5016475;28;20168;-67
2022/03/17 06:37:56;;;;;;;12.50;11.20;;;19.30;47.60;;;;;;5016343;28;20191;-66
2022/03/17 06:40:23;;;;;;;14.07;12.48;;;19.40;47.70;;;;;;4999950;28;20211;-66
2022/03/17 06:42:50;;;;;;;13.70;12.40;;;19.30;47.60;;;;;;5015997;28;20340;-66
2022/03/17 06:45:17;;;;;;;11.55;10.55;;;19.30;47.60;;;;;;5016194;28;20197;-67
2022/03/17 06:47:44;;;;;;;11.60;10.60;;;19.40;47.70;;;;;;5015961;28;20183;-66
2022/03/17 06:50:12;;;;;;;11.55;10.55;;;19.40;47.60;;;;;;5019096;23;20616;-68
2022/03/17 06:52:37;;;;;;;11.30;10.30;;;19.30;47.60;;;;;;4977065;28;20181;-68
2022/03/17 06:55:04;;;;;;;10.63;9.65;;;19.40;47.70;;;;;;4976992;28;20188;-68
2022/03/17 06:57:30;;;;;;;10.45;9.45;;;19.40;47.70;;;;;;4976432;28;20199;-69
2022/03/17 06:59:56;;;;;;;10.98;10.00;;;19.30;47.60;;;;;;4976412;28;20296;-68
2022/03/17 07:02:22;;;;;;;10.20;9.40;;;19.30;47.60;;;;;;4992804;28;20299;-68
2022/03/17 07:04:48;;;;;;;11.18;10.20;;;19.40;47.70;;;;;;4976575;28;20188;-68
2022/03/17 07:07:15;;;;;;;10.43;9.55;;;19.40;47.60;;;;;;4992069;28;20195;-68
2022/03/17 07:09:41;;;;;;;10.40;9.50;;;19.40;47.60;;;;;;4972196;28;20716;-68
2022/03/17 07:12:10;;;;;;;11.00;10.00;;;19.40;47.60;;;;;;4976618;28;20280;-68
2022/03/17 07:14:36;;;;;;;11.60;10.60;;;19.40;47.60;;;;;;4976781;28;20212;-68
2022/03/17 07:17:02;;;;;;;10.82;9.90;;;19.40;47.60;;;;;;4992589;28;20224;-68
2022/03/17 07:19:29;;;;;;;11.30;10.38;;;19.40;47.60;;;;;;4974236;28;20216;-68
2022/03/17 07:21:56;;;;;;;11.43;10.32;;;19.30;47.60;;;;;;5001153;28;20213;-69
2022/03/17 07:24:23;;;;;;;12.60;11.55;;;19.40;47.60;;;;;;4960273;28;20181;-69
2022/03/17 07:26:49;;;;;;;11.88;10.88;;;19.40;47.70;;;;;;4966200;28;20185;-68
2022/03/17 07:29:14;;;;;;;12.35;11.30;;;19.40;47.60;;;;;;4957826;28;20213;-68
2022/03/17 07:31:40;;;;;;;12.55;11.45;;;19.40;47.60;;;;;;4960090;28;20192;-69
2022/03/17 07:34:06;;;;;;;12.07;10.98;;;19.40;47.60;;;;;;4976120;28;20189;-68
2022/03/17 07:36:32;;;;;;;12.38;11.30;;;19.40;47.60;;;;;;4961908;28;20189;-68
2022/03/17 07:39:01;;;;;;;13.07;11.98;;;19.40;47.60;;;;;;4963270;28;20189;-69
2022/03/17 07:41:28;;;;;;;11.90;10.82;;;19.40;47.60;;;;;;4975482;28;20254;-68
2022/03/17 07:43:54;;;;;;;11.57;10.40;;;19.30;47.60;;;;;;4976928;28;20220;-69
2022/03/17 07:46:43;;;;;;;10.23;9.32;;;19.30;47.50;;;;;;4991682;28;20192;-69
2022/03/17 07:49:19;;;;;;;10.75;9.75;;;19.40;47.60;;;;;;4975476;28;20258;-68
2022/03/17 07:51:46;;;;;;;11.30;10.32;;;19.40;47.60;;;;;;4959633;28;20622;-68
2022/03/17 07:54:13;;;;;;;11.20;10.20;;;19.30;47.50;;;;;;4993235;28;20184;-68
2022/03/17 07:56:40;;;;;;;10.73;9.77;;;19.40;47.60;;;;;;4992971;28;20181;-68
2022/03/17 07:59:08;;;;;;;10.95;10.05;;;19.40;47.60;;;;;;4975629;28;20173;-68
2022/03/17 08:01:33;;;;;;;12.32;11.23;;;19.40;47.60;;;;;;4963810;28;20184;-69
2022/03/17 08:03:59;;;;;;;12.70;11.60;;;19.40;47.60;;;;;;4991741;28;20259;-69
2022/03/17 08:06:26;;;;;;;13.70;12.43;;;19.40;47.60;;;;;;4975803;28;20188;-69
2022/03/17 08:08:52;;;;;;;12.32;11.23;;;19.40;47.70;;;;;;4974973;28;20189;-68
2022/03/17 08:11:18;;;;;;;12.38;11.18;;;19.40;47.60;;;;;;4958451;28;20208;-69
2022/03/17 08:13:45;;;;;;;12.00;11.00;;;19.40;47.60;;;;;;4989355;28;20181;-68
2022/03/17 08:16:12;;;;;;;13.50;12.30;;;19.40;47.60;;;;;;4991647;28;20546;-69
2022/03/17 08:18:38;;;;;;;12.75;11.55;;;19.30;47.60;;;;;;4991517;28;20193;-68
2022/03/17 08:21:05;;;;;;;13.23;12.02;;;19.40;47.60;;;;;;4974638;28;20256;-69
2022/03/17 08:23:30;;;;;;;12.23;11.13;;;19.40;47.60;;;;;;4975529;28;20215;-69
2022/03/17 08:25:56;;;;;;;12.38;11.25;;;19.40;47.60;;;;;;4975615;28;20193;-69
2022/03/17 08:28:24;;;;;;;11.20;10.30;;;19.40;47.60;;;;;;4975630;28;20227;-68
2022/03/17 08:30:51;;;;;;;10.68;9.73;;;19.40;47.60;;;;;;4975033;28;20224;-69
2022/03/17 08:33:18;;;;;;;11.45;10.45;;;19.40;47.60;;;;;;4959267;28;20327;-69
2022/03/17 08:35:45;;;;;;;11.48;10.43;;;19.40;47.60;;;;;;4975512;28;20204;-68
2022/03/17 08:38:12;;;;;;;11.15;10.15;;;19.40;47.60;;;;;;4973046;28;20277;-69
2022/03/17 08:40:40;;;;;;;11.40;10.48;;;19.40;47.60;;;;;;4968389;28;20206;-69
2022/03/17 08:43:09;;;;;;;10.85;9.85;;;19.40;47.60;;;;;;4991382;28;20208;-68
2022/03/17 08:51:07;;;;;;;13.23;12.02;;;19.40;47.60;;;;;;4987048;28;20239;-69
2022/03/17 08:53:33;;;;;;;12.40;11.10;;;19.40;47.70;;;;;;4991521;28;20192;-69
2022/03/17 08:56:01;;;;;;;13.65;12.45;;;19.40;47.60;;;;;;4984705;28;20185;-68
2022/03/17 08:58:27;;;;;;;12.63;11.52;;;19.40;47.60;;;;;;4994429;28;20195;-67
2022/03/17 09:00:54;;;;;;;12.45;11.35;;;19.30;47.60;;;;;;4979652;28;20217;-69
2022/03/17 09:03:20;;;;;;;12.23;11.23;;;19.40;47.60;;;;;;4992043;28;20239;-68
2022/03/17 09:05:46;;;;;;;11.10;10.20;;;19.40;47.60;;;;;;4999690;28;20185;-68
2022/03/17 09:08:11;;;;;;;10.88;9.88;;;19.40;47.60;;;;;;4991309;28;20181;-68
2022/03/17 09:10:39;;;;;;;10.93;9.93;;;19.40;47.60;;;;;;4966490;28;20220;-68
2022/03/17 09:13:07;;;;;;;10.50;9.60;;;19.40;47.60;;;;;;4975110;28;20200;-68
2022/03/17 09:15:42;;;;;;;10.52;9.63;;;19.40;47.60;;;;;;4958929;28;20185;-68
2022/03/17 09:18:11;;;;;;;11.65;10.55;;;19.40;47.60;;;;;;4977307;28;20179;-67
2022/03/17 09:20:41;;;;;;;11.13;10.20;;;19.40;47.60;;;;;;4976115;28;20208;-67
2022/03/17 09:23:08;;;;;;;10.88;9.98;;;19.40;47.60;;;;;;4994641;28;20291;-68
2022/03/17 09:25:35;;;;;;;11.95;10.95;;;19.40;47.60;;;;;;4962495;28;20284;-68
2022/03/17 09:28:03;;;;;;;11.57;10.57;;;19.40;47.60;;;;;;4978363;28;20250;-67
2022/03/17 09:30:30;;;;;;;12.48;11.27;;;19.40;47.70;;;;;;4990355;28;20205;-68
2022/03/17 09:32:56;;;;;;;12.48;11.38;;;19.40;47.60;;;;;;4986413;28;20206;-68
2022/03/17 09:35:23;;;;;;;12.90;11.80;;;19.40;47.60;;;;;;5004049;28;20207;-67
2022/03/17 09:37:49;;;;;;;13.20;12.02;;;19.40;47.60;;;;;;4967339;28;20187;-68
2022/03/17 09:40:15;;;;;;;13.95;12.65;;;19.40;47.60;;;;;;4978945;28;20214;-68
2022/03/17 09:42:41;;;;;;;13.45;12.15;;;19.40;47.60;;;;;;4975517;28;20216;-68
2022/03/17 09:45:09;;;;;;;13.75;12.52;;;19.40;47.60;;;;;;4962387;28;20185;-68
2022/03/17 09:47:41;;;;;;;12.82;11.73;;;19.40;47.60;;;;;;4979901;28;20669;-68
2022/03/17 09:50:11;;;;;;;11.98;10.88;;;19.40;47.60;;;;;;5005025;28;20212;-68
2022/03/17 09:52:44;;;;;;;10.50;9.60;;;19.40;47.70;;;;;;4974985;28;20657;-68
2022/03/17 09:55:11;;;;;;;10.82;9.88;;;19.40;47.60;;;;;;4961655;28;20276;-68
2022/03/17 09:57:46;;;;;;;11.05;10.15;;;19.40;47.70;;;;;;4995636;28;20227;-68
2022/03/17 10:00:15;;;;;;;10.63;9.73;;;19.40;47.60;;;;;;4981705;28;20638;-68
2022/03/17 10:02:41;;;;;;;11.13;10.15;;;19.40;47.60;;;;;;4961637;28;20690;-68
2022/03/17 10:05:11;;;;;;;11.68;10.57;;;19.40;47.60;;;;;;4961565;28;20243;-68
2022/03/17 10:07:39;;;;;;;10.32;9.43;;;19.40;47.60;;;;;;4977751;28;20235;-68
2022/03/17 10:10:05;;;;;;;11.35;10.38;;;19.40;47.60;;;;;;4990847;28;20239;-68
2022/03/17 10:12:31;;;;;;;12.45;11.35;;;19.40;47.70;;;;;;4995074;28;20254;-68
2022/03/17 10:14:58;;;;;;;12.52;11.38;;;19.40;47.60;;;;;;4977797;28;20217;-68
2022/03/17 10:17:32;;;;;;;13.02;11.93;;;19.40;47.60;;;;;;4964807;28;20184;-69
2022/03/17 10:20:25;;;;;;;13.73;12.43;;;19.40;47.60;;;;;;5005999;28;20204;-69
2022/03/17 10:22:57;;;;;;;10.98;9.98;;;19.40;47.60;;;;;;4975925;28;20209;-68
2022/03/17 10:25:27;;;;;;;10.32;9.43;;;19.40;47.60;;;;;;4977552;28;20676;-68
2022/03/17 10:27:56;;;;;;;11.13;10.13;;;19.40;47.60;;;;;;4961266;28;20270;-69
2022/03/17 10:30:33;;;;;;;11.23;10.25;;;19.40;47.70;;;;;;4976841;28;20250;-69
2022/03/17 10:33:21;;;;;;;11.15;10.15;;;19.40;47.60;;;;;;4993881;28;20661;-68
2022/03/17 10:35:49;;;;;;;10.52;9.63;;;19.40;47.60;;;;;;4976042;28;20200;-68
2022/03/17 10:38:18;;;;;;;12.07;11.07;;;19.40;47.60;;;;;;4977202;28;20273;-68
2022/03/17 10:40:59;;;;;;;11.95;10.82;;;19.50;47.70;;;;;;4985874;28;20206;-69
2022/03/17 10:43:26;;;;;;;10.75;9.75;;;19.50;47.70;;;;;;4986895;28;20307;-68
2022/03/17 10:46:20;;;;;;;11.90;10.75;;;19.50;47.80;;;;;;4994449;28;20187;-70
2022/03/17 10:49:05;;;;;;;10.25;9.35;;;19.50;47.80;;;;;;4993257;28;20203;-70
2022/03/17 10:51:42;;;;;;;9.52;8.65;;;19.50;47.80;;;;;;4961638;28;20316;-70
2022/03/17 10:54:15;;;;;;;10.52;9.63;;;19.50;47.80;;;;;;4957731;28;20180;-69
2022/03/17 10:56:42;;;;;;;10.23;9.32;;;19.50;47.80;;;;;;4973842;28;20185;-69
2022/03/17 10:59:08;;;;;;;10.45;9.55;;;19.50;47.80;;;;;;4979980;28;20184;-68
2022/03/17 11:01:38;;;;;;;11.35;10.35;;;19.50;47.90;;;;;;4973020;28;20192;-69
2022/03/17 11:04:05;;;;;;;11.18;10.15;;;19.50;47.90;;;;;;4957391;28;20220;-69
2022/03/17 11:06:32;;;;;;;12.38;11.20;;;19.50;47.90;;;;;;4957411;28;20256;-69
2022/03/17 11:09:02;;;;;;;11.48;10.52;;;19.50;47.90;;;;;;4958243;28;20207;-69
2022/03/17 11:11:29;;;;;;;10.52;9.52;;;19.50;47.90;;;;;;4976976;28;20275;-69
2022/03/17 11:13:59;;;;;;;10.35;9.45;;;19.50;48.00;;;;;;4976517;28;20195;-69
2022/03/17 11:16:43;;;;;;;9.88;9.07;;;19.50;48.00;;;;;;4992629;28;20192;-69
2022/03/17 11:19:14;;;;;;;9.98;9.07;;;19.50;48.00;;;;;;4976233;28;20185;-69
2022/03/17 11:21:49;;;;;;;9.23;8.32;;;19.50;48.00;;;;;;4976270;28;20677;-70
2022/03/17 11:24:22;;;;;;;9.13;8.25;;;19.50;48.00;;;;;;4976071;28;20192;-69
2022/03/17 11:26:50;;;;;;;9.05;8.25;;;19.50;48.00;;;;;;4976350;28;20181;-70
2022/03/17 11:29:21;;;;;;;9.30;8.40;;;19.50;48.10;;;;;;4953928;28;20263;-69
2022/03/17 11:31:58;;;;;;;8.80;8.00;;;19.60;48.20;;;;;;4990021;28;20271;-69
2022/03/17 11:34:47;;;;;;;9.60;8.70;;;19.50;48.10;;;;;;4955545;28;20211;-69
2022/03/17 11:37:19;;;;;;;10.10;9.07;;;19.60;48.20;;;;;;4940981;28;20188;-68
2022/03/17 11:40:03;;;;;;;9.70;8.82;;;19.60;48.30;;;;;;4975905;28;20206;-69
2022/03/17 11:42:35;;;;;;;9.27;8.05;;;19.60;48.30;;;;;;4990920;28;20256;-69
2022/03/17 11:45:13;;;;;;;9.00;8.10;;;19.60;48.30;;;;;;4959560;28;20280;-69
2022/03/17 11:47:50;;;;;;;9.18;8.38;;;19.60;48.30;;;;;;4975421;28;20181;-69
2022/03/17 11:50:40;;;;;;;8.50;7.68;;;19.60;48.30;;;;;;4992224;28;20705;-69
2022/03/17 11:53:17;;;;;;;8.20;7.38;;;19.60;48.40;;;;;;4992818;28;20192;-69
2022/03/17 11:55:46;;;;;;;8.02;7.43;;;19.60;48.50;;;;;;5008866;28;20187;-69
2022/03/17 11:58:46;;;;;;;10.23;8.27;;;19.60;48.60;;;;;;4988719;28;20215;-69
2022/03/17 12:01:23;;;;;;;7.75;7.00;;;19.60;48.50;;;;;;4953115;28;20231;-70
2022/03/17 12:03:56;;;;;;;7.90;7.13;;;19.60;48.60;;;;;;4964970;28;20668;-69
2022/03/17 12:06:27;;;;;;;7.53;6.90;;;19.60;48.60;;;;;;4959664;28;20184;-70
2022/03/17 12:09:04;;;;;;;7.50;6.80;;;19.60;48.60;;;;;;4975673;28;20184;-69
2022/03/17 12:11:47;;;;;;;7.45;6.85;;;19.60;48.60;;;;;;4967488;28;20246;-69
2022/03/17 12:14:14;;;;;;;8.20;7.50;;;19.60;48.60;;;;;;4940291;28;20178;-70
2022/03/17 12:17:09;;;;;;;7.50;6.85;;;19.60;48.70;;;;;;4956167;28;20181;-69
2022/03/17 12:19:48;;;;;;;7.95;7.10;;;19.60;48.70;;;;;;4959795;28;20209;-69
2022/03/17 12:22:33;;;;;;;8.27;7.25;;;19.60;48.70;;;;;;4969064;28;20209;-70
2022/03/17 12:25:11;;;;;;;8.75;6.75;;;19.60;48.70;;;;;;4975331;28;20232;-70
2022/03/17 12:27:39;;;;;;;7.95;7.25;;;19.60;48.70;;;;;;4975885;28;20188;-70
2022/03/17 12:30:15;;;;;;;7.53;6.78;;;19.60;48.70;;;;;;4976955;28;20259;-69
2022/03/17 12:32:48;;;;;;;7.65;6.95;;;19.60;48.70;;;;;;4975599;28;20211;-69
2022/03/17 12:35:15;;;;;;;8.68;7.35;;;19.60;48.80;;;;;;4976838;28;20228;-69
2022/03/17 12:37:44;;;;;;;9.85;8.85;;;19.60;48.80;;;;;;4992536;28;20230;-69
2022/03/17 12:40:20;;;;;;;9.15;7.78;;;19.60;48.80;;;;;;4991629;28;20212;-68
2022/03/17 12:42:49;;;;;;;9.77;8.55;;;19.60;48.80;;;;;;4962991;28;20221;-69
2022/03/17 12:45:18;;;;;;;9.77;8.15;;;19.60;48.80;;;;;;4963423;28;20185;-69
2022/03/17 12:47:56;;;;;;;7.70;7.00;;;19.60;48.80;;;;;;4978543;28;20647;-69
2022/03/17 12:50:23;;;;;;;7.60;6.90;;;19.60;48.90;;;;;;4970146;28;20212;-69
2022/03/17 12:52:50;;;;;;;7.35;6.68;;;19.60;48.90;;;;;;4959507;28;20602;-69
2022/03/17 12:55:19;;;;;;;8.32;7.35;;;19.60;48.90;;;;;;4961873;28;20194;-69
2022/03/17 12:57:46;;;;;;;7.53;6.72;;;19.60;48.90;;;;;;4998310;28;20222;-69
2022/03/17 13:00:15;;;;;;;8.07;7.38;;;19.60;49.00;;;;;;4971566;28;20263;-69
2022/03/17 13:02:48;;;;;;;7.85;7.10;;;19.60;48.90;;;;;;4997187;28;20204;-69